sensor_id;sensor_type;location;lat;lon;timestamp;P1;durP1;ratioP1;P2;durP2;ratioP2
80213;SDS011;69531;37.974;23.708;2023-04-20T04:56:36;15.30;;;7.22;;
80213;SDS011;69531;37.974;23.708;2023-04-20T04:59:02;12.32;;;6.28;;
80213;SDS011;69531;37.974;23.708;2023-04-20T05:01:28;13.00;;;7.30;;
80213;SDS011;69531;37.974;23.708;2023-04-20T05:03:54;14.10;;;6.88;;
80213;SDS011;69531;37.974;23.708;2023-04-20T05:06:20;14.90;;;7.55;;
80213;SDS011;69531;37.974;23.708;2023-04-20T05:08:46;13.52;;;7.55;;
80213;SDS011;69531;37.974;23.708;2023-04-20T05:11:11;14.70;;;7.03;;
80213;SDS011;69531;37.974;23.708;2023-04-20T05:13:37;14.68;;;7.63;;
80213;SDS011;69531;37.974;23.708;2023-04-20T05:16:03;16.35;;;7.10;;
80213;SDS011;69531;37.974;23.708;2023-04-20T05:18:29;14.07;;;7.65;;
80213;SDS011;69531;37.974;23.708;2023-04-20T05:20:55;12.90;;;6.90;;
80213;SDS011;69531;37.974;23.708;2023-04-20T05:23:20;16.27;;;7.10;;
80213;SDS011;69531;37.974;23.708;2023-04-20T05:25:46;11.00;;;6.65;;
80213;SDS011;69531;37.974;23.708;2023-04-20T05:28:12;11.68;;;6.43;;
80213;SDS011;69531;37.974;23.708;2023-04-20T05:30:37;9.05;;;5.85;;
80213;SDS011;69531;37.974;23.708;2023-04-20T05:33:03;9.25;;;5.65;;
80213;SDS011;69531;37.974;23.708;2023-04-20T05:35:29;12.85;;;5.97;;
80213;SDS011;69531;37.974;23.708;2023-04-20T05:37:55;12.45;;;6.13;;
80213;SDS011;69531;37.974;23.708;2023-04-20T05:40:24;11.32;;;5.18;;
80213;SDS011;69531;37.974;23.708;2023-04-20T05:42:50;9.18;;;5.28;;
80213;SDS011;69531;37.974;23.708;2023-04-20T05:45:17;9.68;;;5.20;;
80213;SDS011;69531;37.974;23.708;2023-04-20T05:47:50;10.48;;;4.85;;
80213;SDS011;69531;37.974;23.708;2023-04-20T05:50:17;14.98;;;4.97;;
80213;SDS011;69531;37.974;23.708;2023-04-20T05:52:42;8.65;;;4.28;;
80213;SDS011;69531;37.974;23.708;2023-04-20T05:55:09;10.38;;;4.32;;
80213;SDS011;69531;37.974;23.708;2023-04-20T05:57:35;8.00;;;3.97;;
80213;SDS011;69531;37.974;23.708;2023-04-20T06:00:07;6.43;;;3.50;;
80213;SDS011;69531;37.974;23.708;2023-04-20T06:02:36;8.65;;;4.00;;
80213;SDS011;69531;37.974;23.708;2023-04-20T06:05:02;8.25;;;3.78;;
80213;SDS011;69531;37.974;23.708;2023-04-20T06:07:28;7.70;;;3.40;;
80213;SDS011;69531;37.974;23.708;2023-04-20T06:09:54;7.43;;;3.50;;
80213;SDS011;69531;37.974;23.708;2023-04-20T06:12:19;6.22;;;3.10;;
80213;SDS011;69531;37.974;23.708;2023-04-20T06:14:45;7.18;;;3.25;;
80213;SDS011;69531;37.974;23.708;2023-04-20T06:17:11;8.02;;;3.00;;
80213;SDS011;69531;37.974;23.708;2023-04-20T06:19:37;6.20;;;2.80;;
80213;SDS011;69531;37.974;23.708;2023-04-20T06:22:06;9.98;;;2.83;;
80213;SDS011;69531;37.974;23.708;2023-04-20T06:24:33;4.13;;;2.23;;
80213;SDS011;69531;37.974;23.708;2023-04-20T06:26:59;6.18;;;2.33;;
80213;SDS011;69531;37.974;23.708;2023-04-20T06:29:26;4.07;;;2.67;;
80213;SDS011;69531;37.974;23.708;2023-04-20T06:31:52;4.18;;;2.22;;
80213;SDS011;69531;37.974;23.708;2023-04-20T06:34:18;3.90;;;1.95;;
80213;SDS011;69531;37.974;23.708;2023-04-20T06:36:44;5.82;;;2.35;;
80213;SDS011;69531;37.974;23.708;2023-04-20T06:39:09;3.05;;;1.90;;
80213;SDS011;69531;37.974;23.708;2023-04-20T06:41:40;5.03;;;1.98;;
80213;SDS011;69531;37.974;23.708;2023-04-20T06:46:33;3.55;;;1.80;;
80213;SDS011;69531;37.974;23.708;2023-04-20T06:48:59;4.03;;;2.03;;
80213;SDS011;69531;37.974;23.708;2023-04-20T06:51:25;4.05;;;1.52;;
80213;SDS011;69531;37.974;23.708;2023-04-20T06:53:53;3.75;;;1.50;;
80213;SDS011;69531;37.974;23.708;2023-04-20T06:56:19;2.35;;;1.30;;
80213;SDS011;69531;37.974;23.708;2023-04-20T06:58:45;3.00;;;1.38;;
80213;SDS011;69531;37.974;23.708;2023-04-20T07:01:11;4.35;;;1.67;;
80213;SDS011;69531;37.974;23.708;2023-04-20T07:03:37;4.82;;;1.90;;
80213;SDS011;69531;37.974;23.708;2023-04-20T07:06:03;3.80;;;1.52;;
80213;SDS011;69531;37.974;23.708;2023-04-20T07:08:32;3.92;;;1.50;;
80213;SDS011;69531;37.974;23.708;2023-04-20T07:10:58;3.38;;;1.40;;
80213;SDS011;69531;37.974;23.708;2023-04-20T07:13:24;4.75;;;1.80;;
80213;SDS011;69531;37.974;23.708;2023-04-20T07:15:50;3.85;;;1.50;;
80213;SDS011;69531;37.974;23.708;2023-04-20T07:18:16;3.58;;;1.40;;
80213;SDS011;69531;37.974;23.708;2023-04-20T07:20:42;3.58;;;1.67;;
80213;SDS011;69531;37.974;23.708;2023-04-20T07:23:07;5.85;;;1.90;;
80213;SDS011;69531;37.974;23.708;2023-04-20T07:25:33;5.75;;;1.85;;
80213;SDS011;69531;37.974;23.708;2023-04-20T07:27:59;4.05;;;1.85;;
80213;SDS011;69531;37.974;23.708;2023-04-20T07:30:24;3.75;;;1.65;;
80213;SDS011;69531;37.974;23.708;2023-04-20T07:32:50;7.03;;;2.30;;
80213;SDS011;69531;37.974;23.708;2023-04-20T07:35:16;4.60;;;1.98;;
80213;SDS011;69531;37.974;23.708;2023-04-20T07:37:42;7.53;;;2.13;;
80213;SDS011;69531;37.974;23.708;2023-04-20T07:40:08;6.28;;;2.05;;
80213;SDS011;69531;37.974;23.708;2023-04-20T07:42:34;5.93;;;2.03;;
80213;SDS011;69531;37.974;23.708;2023-04-20T07:45:01;8.68;;;1.90;;
80213;SDS011;69531;37.974;23.708;2023-04-20T07:47:28;5.15;;;2.10;;
80213;SDS011;69531;37.974;23.708;2023-04-20T07:49:53;6.43;;;2.17;;
80213;SDS011;69531;37.974;23.708;2023-04-20T07:52:21;5.60;;;1.85;;
80213;SDS011;69531;37.974;23.708;2023-04-20T07:54:47;3.97;;;1.88;;
80213;SDS011;69531;37.974;23.708;2023-04-20T07:57:13;5.47;;;1.85;;
80213;SDS011;69531;37.974;23.708;2023-04-20T07:59:39;3.88;;;1.70;;
80213;SDS011;69531;37.974;23.708;2023-04-20T08:02:05;4.90;;;1.70;;
80213;SDS011;69531;37.974;23.708;2023-04-20T08:04:32;3.55;;;1.60;;
80213;SDS011;69531;37.974;23.708;2023-04-20T08:06:59;4.82;;;2.20;;
80213;SDS011;69531;37.974;23.708;2023-04-20T08:09:25;5.40;;;2.40;;
80213;SDS011;69531;37.974;23.708;2023-04-20T08:11:52;6.63;;;2.38;;
80213;SDS011;69531;37.974;23.708;2023-04-20T08:14:18;3.72;;;2.00;;
80213;SDS011;69531;37.974;23.708;2023-04-20T08:16:43;4.05;;;2.10;;
80213;SDS011;69531;37.974;23.708;2023-04-20T08:19:09;4.72;;;1.70;;
80213;SDS011;69531;37.974;23.708;2023-04-20T08:21:35;4.07;;;1.58;;
80213;SDS011;69531;37.974;23.708;2023-04-20T08:24:05;2.67;;;1.58;;
80213;SDS011;69531;37.974;23.708;2023-04-20T08:26:32;5.38;;;1.60;;
80213;SDS011;69531;37.974;23.708;2023-04-20T08:28:58;5.82;;;1.73;;
80213;SDS011;69531;37.974;23.708;2023-04-20T08:31:25;3.47;;;1.20;;
80213;SDS011;69531;37.974;23.708;2023-04-20T08:33:50;5.07;;;1.27;;
80213;SDS011;69531;37.974;23.708;2023-04-20T08:36:16;2.80;;;1.40;;
80213;SDS011;69531;37.974;23.708;2023-04-20T08:38:42;5.00;;;1.40;;
80213;SDS011;69531;37.974;23.708;2023-04-20T08:41:08;5.90;;;1.33;;
80213;SDS011;69531;37.974;23.708;2023-04-20T08:43:38;3.80;;;1.20;;
80213;SDS011;69531;37.974;23.708;2023-04-20T08:46:04;2.45;;;1.10;;
80213;SDS011;69531;37.974;23.708;2023-04-20T08:48:34;2.97;;;1.23;;
80213;SDS011;69531;37.974;23.708;2023-04-20T08:51:01;3.08;;;1.00;;
80213;SDS011;69531;37.974;23.708;2023-04-20T08:53:28;1.73;;;1.00;;
80213;SDS011;69531;37.974;23.708;2023-04-20T08:55:55;2.67;;;1.25;;
80213;SDS011;69531;37.974;23.708;2023-04-20T08:58:23;3.05;;;1.10;;
80213;SDS011;69531;37.974;23.708;2023-04-20T09:00:50;2.75;;;1.10;;
80213;SDS011;69531;37.974;23.708;2023-04-20T09:03:16;5.30;;;1.20;;
80213;SDS011;69531;37.974;23.708;2023-04-20T09:05:44;2.72;;;1.05;;
80213;SDS011;69531;37.974;23.708;2023-04-20T09:08:10;2.95;;;1.00;;
80213;SDS011;69531;37.974;23.708;2023-04-20T09:10:42;1.23;;;0.90;;
80213;SDS011;69531;37.974;23.708;2023-04-20T09:13:09;1.58;;;1.00;;
80213;SDS011;69531;37.974;23.708;2023-04-20T09:15:46;4.10;;;1.20;;
80213;SDS011;69531;37.974;23.708;2023-04-20T09:18:12;2.65;;;1.10;;
80213;SDS011;69531;37.974;23.708;2023-04-20T09:20:38;3.35;;;1.13;;
80213;SDS011;69531;37.974;23.708;2023-04-20T09:23:11;1.65;;;0.98;;
80213;SDS011;69531;37.974;23.708;2023-04-20T09:25:38;1.60;;;0.90;;
80213;SDS011;69531;37.974;23.708;2023-04-20T09:28:05;2.67;;;0.90;;
80213;SDS011;69531;37.974;23.708;2023-04-20T09:33:06;4.15;;;1.30;;
80213;SDS011;69531;37.974;23.708;2023-04-20T09:35:34;2.55;;;0.90;;
80213;SDS011;69531;37.974;23.708;2023-04-20T09:38:02;2.35;;;0.80;;
80213;SDS011;69531;37.974;23.708;2023-04-20T09:40:28;1.42;;;0.80;;
80213;SDS011;69531;37.974;23.708;2023-04-20T09:42:54;2.15;;;1.00;;
80213;SDS011;69531;37.974;23.708;2023-04-20T09:45:27;2.45;;;1.02;;
80213;SDS011;69531;37.974;23.708;2023-04-20T09:47:52;2.72;;;1.15;;
80213;SDS011;69531;37.974;23.708;2023-04-20T09:50:20;3.83;;;1.10;;
80213;SDS011;69531;37.974;23.708;2023-04-20T09:52:46;3.85;;;1.00;;
80213;SDS011;69531;37.974;23.708;2023-04-20T09:55:13;2.42;;;1.08;;
80213;SDS011;69531;37.974;23.708;2023-04-20T09:57:39;2.75;;;1.02;;
80213;SDS011;69531;37.974;23.708;2023-04-20T10:00:06;3.05;;;0.93;;
80213;SDS011;69531;37.974;23.708;2023-04-20T10:02:34;2.50;;;1.10;;
80213;SDS011;69531;37.974;23.708;2023-04-20T10:05:01;1.98;;;0.93;;
80213;SDS011;69531;37.974;23.708;2023-04-20T10:07:29;1.80;;;0.95;;
80213;SDS011;69531;37.974;23.708;2023-04-20T10:10:12;2.88;;;1.10;;
80213;SDS011;69531;37.974;23.708;2023-04-20T10:12:49;3.30;;;1.00;;
80213;SDS011;69531;37.974;23.708;2023-04-20T10:15:16;2.42;;;1.13;;
80213;SDS011;69531;37.974;23.708;2023-04-20T10:17:42;1.33;;;0.85;;
80213;SDS011;69531;37.974;23.708;2023-04-20T10:20:22;4.30;;;1.02;;
80213;SDS011;69531;37.974;23.708;2023-04-20T10:22:50;2.45;;;0.90;;
80213;SDS011;69531;37.974;23.708;2023-04-20T10:25:18;2.72;;;0.90;;
80213;SDS011;69531;37.974;23.708;2023-04-20T10:27:56;2.13;;;0.95;;
80213;SDS011;69531;37.974;23.708;2023-04-20T10:30:24;1.00;;;0.75;;
80213;SDS011;69531;37.974;23.708;2023-04-20T10:35:39;2.13;;;0.80;;
80213;SDS011;69531;37.974;23.708;2023-04-20T10:38:10;2.83;;;0.95;;
80213;SDS011;69531;37.974;23.708;2023-04-20T10:40:36;1.63;;;1.00;;
80213;SDS011;69531;37.974;23.708;2023-04-20T10:43:02;2.60;;;1.17;;
80213;SDS011;69531;37.974;23.708;2023-04-20T10:45:37;2.75;;;1.63;;
80213;SDS011;69531;37.974;23.708;2023-04-20T10:48:10;3.42;;;1.75;;
80213;SDS011;69531;37.974;23.708;2023-04-20T10:50:35;3.17;;;1.70;;
80213;SDS011;69531;37.974;23.708;2023-04-20T10:53:02;2.30;;;1.60;;
80213;SDS011;69531;37.974;23.708;2023-04-20T10:55:29;3.33;;;1.75;;
80213;SDS011;69531;37.974;23.708;2023-04-20T10:57:55;3.15;;;1.70;;
80213;SDS011;69531;37.974;23.708;2023-04-20T11:00:22;3.25;;;1.55;;
80213;SDS011;69531;37.974;23.708;2023-04-20T11:02:50;3.10;;;1.30;;
80213;SDS011;69531;37.974;23.708;2023-04-20T11:05:18;2.72;;;1.30;;
80213;SDS011;69531;37.974;23.708;2023-04-20T11:07:54;3.60;;;1.48;;
80213;SDS011;69531;37.974;23.708;2023-04-20T11:10:22;2.40;;;1.10;;
80213;SDS011;69531;37.974;23.708;2023-04-20T11:12:49;2.22;;;1.25;;
80213;SDS011;69531;37.974;23.708;2023-04-20T11:15:16;1.80;;;0.98;;
80213;SDS011;69531;37.974;23.708;2023-04-20T11:17:42;2.70;;;1.30;;
80213;SDS011;69531;37.974;23.708;2023-04-20T11:20:12;2.20;;;0.90;;
80213;SDS011;69531;37.974;23.708;2023-04-20T11:22:40;1.67;;;0.90;;
80213;SDS011;69531;37.974;23.708;2023-04-20T11:25:07;1.13;;;0.90;;
80213;SDS011;69531;37.974;23.708;2023-04-20T11:27:35;2.28;;;1.00;;
80213;SDS011;69531;37.974;23.708;2023-04-20T11:30:01;1.80;;;0.80;;
80213;SDS011;69531;37.974;23.708;2023-04-20T11:32:32;1.50;;;0.93;;
80213;SDS011;69531;37.974;23.708;2023-04-20T11:35:00;3.25;;;0.82;;
80213;SDS011;69531;37.974;23.708;2023-04-20T11:37:44;2.65;;;1.02;;
80213;SDS011;69531;37.974;23.708;2023-04-20T11:40:12;1.67;;;0.77;;
80213;SDS011;69531;37.974;23.708;2023-04-20T11:42:39;2.55;;;0.90;;
80213;SDS011;69531;37.974;23.708;2023-04-20T11:45:04;1.67;;;1.05;;
80213;SDS011;69531;37.974;23.708;2023-04-20T11:47:31;1.55;;;0.93;;
80213;SDS011;69531;37.974;23.708;2023-04-20T11:49:56;3.53;;;0.90;;
80213;SDS011;69531;37.974;23.708;2023-04-20T11:52:22;2.30;;;0.90;;
80213;SDS011;69531;37.974;23.708;2023-04-20T11:54:48;3.40;;;0.90;;
80213;SDS011;69531;37.974;23.708;2023-04-20T11:57:14;2.50;;;0.88;;
80213;SDS011;69531;37.974;23.708;2023-04-20T11:59:40;1.23;;;0.90;;
80213;SDS011;69531;37.974;23.708;2023-04-20T12:02:12;1.67;;;0.80;;
80213;SDS011;69531;37.974;23.708;2023-04-20T12:04:38;7.47;;;1.10;;
80213;SDS011;69531;37.974;23.708;2023-04-20T12:07:03;1.40;;;0.70;;
80213;SDS011;69531;37.974;23.708;2023-04-20T12:09:29;1.92;;;1.05;;
80213;SDS011;69531;37.974;23.708;2023-04-20T12:12:00;2.83;;;1.00;;
80213;SDS011;69531;37.974;23.708;2023-04-20T12:14:26;1.10;;;0.80;;
80213;SDS011;69531;37.974;23.708;2023-04-20T12:16:51;1.33;;;0.90;;
80213;SDS011;69531;37.974;23.708;2023-04-20T12:19:17;3.97;;;1.05;;
80213;SDS011;69531;37.974;23.708;2023-04-20T12:21:43;1.60;;;0.85;;
80213;SDS011;69531;37.974;23.708;2023-04-20T12:24:10;3.67;;;1.20;;
80213;SDS011;69531;37.974;23.708;2023-04-20T12:26:36;3.03;;;1.00;;
80213;SDS011;69531;37.974;23.708;2023-04-20T12:29:02;1.92;;;0.90;;
80213;SDS011;69531;37.974;23.708;2023-04-20T12:31:28;1.13;;;0.80;;
80213;SDS011;69531;37.974;23.708;2023-04-20T12:33:53;2.15;;;1.00;;
80213;SDS011;69531;37.974;23.708;2023-04-20T12:36:19;2.15;;;0.80;;
80213;SDS011;69531;37.974;23.708;2023-04-20T12:38:45;3.00;;;1.10;;
80213;SDS011;69531;37.974;23.708;2023-04-20T12:41:13;1.92;;;0.90;;
80213;SDS011;69531;37.974;23.708;2023-04-20T12:43:39;1.60;;;0.77;;
80213;SDS011;69531;37.974;23.708;2023-04-20T12:46:05;1.52;;;0.93;;
80213;SDS011;69531;37.974;23.708;2023-04-20T12:48:30;1.25;;;0.80;;
80213;SDS011;69531;37.974;23.708;2023-04-20T12:50:56;2.45;;;0.98;;
80213;SDS011;69531;37.974;23.708;2023-04-20T12:53:22;1.77;;;1.00;;
80213;SDS011;69531;37.974;23.708;2023-04-20T12:55:47;1.88;;;0.90;;
80213;SDS011;69531;37.974;23.708;2023-04-20T12:58:13;1.25;;;0.90;;
80213;SDS011;69531;37.974;23.708;2023-04-20T13:00:40;1.85;;;1.00;;
80213;SDS011;69531;37.974;23.708;2023-04-20T13:03:07;1.40;;;0.98;;
80213;SDS011;69531;37.974;23.708;2023-04-20T13:05:33;1.25;;;0.88;;
80213;SDS011;69531;37.974;23.708;2023-04-20T13:07:59;1.38;;;0.85;;
80213;SDS011;69531;37.974;23.708;2023-04-20T13:10:25;1.58;;;0.80;;
80213;SDS011;69531;37.974;23.708;2023-04-20T13:12:50;2.65;;;0.98;;
80213;SDS011;69531;37.974;23.708;2023-04-20T13:15:16;2.45;;;0.90;;
80213;SDS011;69531;37.974;23.708;2023-04-20T13:17:44;2.08;;;0.98;;
80213;SDS011;69531;37.974;23.708;2023-04-20T13:20:10;4.15;;;0.88;;
80213;SDS011;69531;37.974;23.708;2023-04-20T13:22:37;1.77;;;0.75;;
80213;SDS011;69531;37.974;23.708;2023-04-20T13:25:03;1.10;;;0.85;;
80213;SDS011;69531;37.974;23.708;2023-04-20T13:27:30;1.75;;;0.90;;
80213;SDS011;69531;37.974;23.708;2023-04-20T13:29:56;1.65;;;1.00;;
80213;SDS011;69531;37.974;23.708;2023-04-20T13:32:23;2.08;;;0.98;;
80213;SDS011;69531;37.974;23.708;2023-04-20T13:34:50;1.15;;;1.00;;
80213;SDS011;69531;37.974;23.708;2023-04-20T13:37:16;1.15;;;0.90;;
80213;SDS011;69531;37.974;23.708;2023-04-20T13:39:42;1.67;;;1.00;;
80213;SDS011;69531;37.974;23.708;2023-04-20T13:42:08;1.95;;;1.02;;
80213;SDS011;69531;37.974;23.708;2023-04-20T13:44:34;3.20;;;0.90;;
80213;SDS011;69531;37.974;23.708;2023-04-20T13:47:03;1.60;;;0.88;;
80213;SDS011;69531;37.974;23.708;2023-04-20T13:49:28;1.80;;;0.80;;
80213;SDS011;69531;37.974;23.708;2023-04-20T13:51:54;1.90;;;0.93;;
80213;SDS011;69531;37.974;23.708;2023-04-20T13:54:20;1.20;;;0.88;;
80213;SDS011;69531;37.974;23.708;2023-04-20T13:56:46;3.58;;;1.00;;
80213;SDS011;69531;37.974;23.708;2023-04-20T13:59:12;1.45;;;0.70;;
80213;SDS011;69531;37.974;23.708;2023-04-20T14:01:38;1.33;;;0.80;;
80213;SDS011;69531;37.974;23.708;2023-04-20T14:04:03;2.13;;;0.90;;
80213;SDS011;69531;37.974;23.708;2023-04-20T14:06:29;1.42;;;0.80;;
80213;SDS011;69531;37.974;23.708;2023-04-20T14:08:55;1.40;;;1.00;;
80213;SDS011;69531;37.974;23.708;2023-04-20T14:11:20;1.38;;;0.80;;
80213;SDS011;69531;37.974;23.708;2023-04-20T14:13:46;2.75;;;0.98;;
80213;SDS011;69531;37.974;23.708;2023-04-20T14:16:15;1.77;;;0.77;;
80213;SDS011;69531;37.974;23.708;2023-04-20T14:18:41;1.13;;;0.90;;
80213;SDS011;69531;37.974;23.708;2023-04-20T14:21:07;1.60;;;0.80;;
80213;SDS011;69531;37.974;23.708;2023-04-20T14:23:32;1.10;;;0.75;;
80213;SDS011;69531;37.974;23.708;2023-04-20T14:25:58;1.83;;;0.90;;
80213;SDS011;69531;37.974;23.708;2023-04-20T14:28:24;1.60;;;0.70;;
80213;SDS011;69531;37.974;23.708;2023-04-20T14:30:50;1.33;;;0.50;;
80213;SDS011;69531;37.974;23.708;2023-04-20T14:33:16;0.70;;;0.60;;
80213;SDS011;69531;37.974;23.708;2023-04-20T14:35:41;0.95;;;0.70;;
80213;SDS011;69531;37.974;23.708;2023-04-20T14:38:07;1.23;;;0.63;;
80213;SDS011;69531;37.974;23.708;2023-04-20T14:40:34;0.63;;;0.60;;
80213;SDS011;69531;37.974;23.708;2023-04-20T14:43:00;1.63;;;0.70;;
80213;SDS011;69531;37.974;23.708;2023-04-20T14:45:26;1.20;;;0.90;;
80213;SDS011;69531;37.974;23.708;2023-04-20T14:47:54;2.30;;;0.95;;
80213;SDS011;69531;37.974;23.708;2023-04-20T14:50:21;1.92;;;0.73;;
80213;SDS011;69531;37.974;23.708;2023-04-20T14:52:51;1.58;;;0.80;;
80213;SDS011;69531;37.974;23.708;2023-04-20T14:55:18;1.98;;;0.90;;
80213;SDS011;69531;37.974;23.708;2023-04-20T14:57:47;0.82;;;0.63;;
80213;SDS011;69531;37.974;23.708;2023-04-20T15:00:14;3.08;;;0.70;;
80213;SDS011;69531;37.974;23.708;2023-04-20T15:02:40;0.82;;;0.70;;
80213;SDS011;69531;37.974;23.708;2023-04-20T15:05:07;1.50;;;0.73;;
80213;SDS011;69531;37.974;23.708;2023-04-20T15:07:33;1.33;;;0.80;;
80213;SDS011;69531;37.974;23.708;2023-04-20T15:09:59;1.55;;;0.80;;
80213;SDS011;69531;37.974;23.708;2023-04-20T15:12:24;1.08;;;0.75;;
80213;SDS011;69531;37.974;23.708;2023-04-20T15:14:50;3.03;;;0.90;;
80213;SDS011;69531;37.974;23.708;2023-04-20T15:17:16;0.98;;;0.65;;
80213;SDS011;69531;37.974;23.708;2023-04-20T15:19:41;1.02;;;0.70;;
80213;SDS011;69531;37.974;23.708;2023-04-20T15:22:13;1.38;;;0.60;;
80213;SDS011;69531;37.974;23.708;2023-04-20T15:24:39;1.43;;;0.80;;
80213;SDS011;69531;37.974;23.708;2023-04-20T15:27:05;0.93;;;0.80;;
80213;SDS011;69531;37.974;23.708;2023-04-20T15:29:31;1.60;;;0.73;;
80213;SDS011;69531;37.974;23.708;2023-04-20T15:31:58;2.03;;;0.85;;
80213;SDS011;69531;37.974;23.708;2023-04-20T15:34:24;1.73;;;0.90;;
80213;SDS011;69531;37.974;23.708;2023-04-20T15:36:50;2.25;;;1.00;;
80213;SDS011;69531;37.974;23.708;2023-04-20T15:39:16;2.97;;;0.93;;
80213;SDS011;69531;37.974;23.708;2023-04-20T15:41:41;2.63;;;0.98;;
80213;SDS011;69531;37.974;23.708;2023-04-20T15:44:07;1.23;;;0.80;;
80213;SDS011;69531;37.974;23.708;2023-04-20T15:46:33;1.27;;;0.80;;
80213;SDS011;69531;37.974;23.708;2023-04-20T15:48:59;2.35;;;1.00;;
80213;SDS011;69531;37.974;23.708;2023-04-20T15:51:25;1.88;;;1.10;;
80213;SDS011;69531;37.974;23.708;2023-04-20T15:53:52;2.17;;;0.98;;
80213;SDS011;69531;37.974;23.708;2023-04-20T15:56:17;2.67;;;1.05;;
80213;SDS011;69531;37.974;23.708;2023-04-20T15:58:45;2.78;;;1.10;;
80213;SDS011;69531;37.974;23.708;2023-04-20T16:01:15;3.58;;;1.30;;
80213;SDS011;69531;37.974;23.708;2023-04-20T16:03:44;2.97;;;1.27;;
80213;SDS011;69531;37.974;23.708;2023-04-20T16:06:11;2.20;;;1.00;;
80213;SDS011;69531;37.974;23.708;2023-04-20T16:08:37;3.65;;;1.27;;
80213;SDS011;69531;37.974;23.708;2023-04-20T16:11:04;1.75;;;1.05;;
80213;SDS011;69531;37.974;23.708;2023-04-20T16:13:30;1.38;;;0.90;;
80213;SDS011;69531;37.974;23.708;2023-04-20T16:15:56;3.10;;;1.40;;
80213;SDS011;69531;37.974;23.708;2023-04-20T16:18:22;1.30;;;0.95;;
80213;SDS011;69531;37.974;23.708;2023-04-20T16:20:48;1.88;;;0.98;;
80213;SDS011;69531;37.974;23.708;2023-04-20T16:23:14;2.67;;;1.20;;
80213;SDS011;69531;37.974;23.708;2023-04-20T16:25:40;2.42;;;1.30;;
80213;SDS011;69531;37.974;23.708;2023-04-20T16:28:06;1.58;;;1.00;;
80213;SDS011;69531;37.974;23.708;2023-04-20T16:30:32;2.03;;;1.00;;
80213;SDS011;69531;37.974;23.708;2023-04-20T16:32:58;5.03;;;1.55;;
80213;SDS011;69531;37.974;23.708;2023-04-20T16:35:24;1.63;;;1.10;;
80213;SDS011;69531;37.974;23.708;2023-04-20T16:37:50;5.13;;;1.20;;
80213;SDS011;69531;37.974;23.708;2023-04-20T16:40:17;1.48;;;0.98;;
80213;SDS011;69531;37.974;23.708;2023-04-20T16:42:43;3.28;;;1.20;;
80213;SDS011;69531;37.974;23.708;2023-04-20T16:45:08;1.95;;;1.10;;
80213;SDS011;69531;37.974;23.708;2023-04-20T16:47:34;3.33;;;1.20;;
80213;SDS011;69531;37.974;23.708;2023-04-20T16:50:00;2.65;;;1.20;;
80213;SDS011;69531;37.974;23.708;2023-04-20T16:52:26;3.22;;;1.23;;
80213;SDS011;69531;37.974;23.708;2023-04-20T16:54:51;2.47;;;1.10;;
80213;SDS011;69531;37.974;23.708;2023-04-20T16:57:17;3.00;;;1.40;;
80213;SDS011;69531;37.974;23.708;2023-04-20T16:59:43;2.28;;;1.20;;
80213;SDS011;69531;37.974;23.708;2023-04-20T17:02:09;4.13;;;1.48;;
80213;SDS011;69531;37.974;23.708;2023-04-20T17:04:34;1.65;;;1.00;;
80213;SDS011;69531;37.974;23.708;2023-04-20T17:07:00;2.85;;;1.13;;
80213;SDS011;69531;37.974;23.708;2023-04-20T17:09:26;2.13;;;1.30;;
80213;SDS011;69531;37.974;23.708;2023-04-20T17:11:53;3.08;;;1.38;;
80213;SDS011;69531;37.974;23.708;2023-04-20T17:14:20;2.97;;;1.30;;
80213;SDS011;69531;37.974;23.708;2023-04-20T17:16:45;4.90;;;1.23;;
80213;SDS011;69531;37.974;23.708;2023-04-20T17:19:11;2.85;;;1.60;;
80213;SDS011;69531;37.974;23.708;2023-04-20T17:21:37;2.50;;;1.40;;
80213;SDS011;69531;37.974;23.708;2023-04-20T17:24:04;4.90;;;1.77;;
80213;SDS011;69531;37.974;23.708;2023-04-20T17:26:30;3.35;;;1.30;;
80213;SDS011;69531;37.974;23.708;2023-04-20T17:28:56;3.58;;;1.50;;
80213;SDS011;69531;37.974;23.708;2023-04-20T17:31:22;2.83;;;1.23;;
80213;SDS011;69531;37.974;23.708;2023-04-20T17:33:47;3.83;;;1.30;;
80213;SDS011;69531;37.974;23.708;2023-04-20T17:36:13;2.88;;;1.40;;
80213;SDS011;69531;37.974;23.708;2023-04-20T17:38:39;3.42;;;1.52;;
80213;SDS011;69531;37.974;23.708;2023-04-20T17:41:05;2.55;;;1.35;;
80213;SDS011;69531;37.974;23.708;2023-04-20T17:43:30;3.88;;;1.55;;
80213;SDS011;69531;37.974;23.708;2023-04-20T17:45:56;3.05;;;1.75;;
80213;SDS011;69531;37.974;23.708;2023-04-20T17:48:23;3.25;;;1.52;;
80213;SDS011;69531;37.974;23.708;2023-04-20T17:50:49;3.35;;;1.65;;
80213;SDS011;69531;37.974;23.708;2023-04-20T17:53:15;2.78;;;1.50;;
80213;SDS011;69531;37.974;23.708;2023-04-20T17:55:41;3.78;;;1.42;;
80213;SDS011;69531;37.974;23.708;2023-04-20T17:58:07;3.20;;;1.35;;
80213;SDS011;69531;37.974;23.708;2023-04-20T18:00:32;3.10;;;1.50;;
80213;SDS011;69531;37.974;23.708;2023-04-20T18:02:58;4.97;;;1.65;;
80213;SDS011;69531;37.974;23.708;2023-04-20T18:05:24;3.38;;;1.30;;
80213;SDS011;69531;37.974;23.708;2023-04-20T18:07:51;4.10;;;1.45;;
80213;SDS011;69531;37.974;23.708;2023-04-20T18:10:17;2.42;;;1.38;;
80213;SDS011;69531;37.974;23.708;2023-04-20T18:12:43;2.30;;;1.40;;
80213;SDS011;69531;37.974;23.708;2023-04-20T18:15:09;2.97;;;1.60;;
80213;SDS011;69531;37.974;23.708;2023-04-20T18:17:35;2.15;;;1.30;;
80213;SDS011;69531;37.974;23.708;2023-04-20T18:20:01;2.70;;;1.40;;
80213;SDS011;69531;37.974;23.708;2023-04-20T18:22:30;3.45;;;1.45;;
80213;SDS011;69531;37.974;23.708;2023-04-20T18:24:57;3.58;;;1.60;;
80213;SDS011;69531;37.974;23.708;2023-04-20T18:27:22;3.13;;;1.60;;
80213;SDS011;69531;37.974;23.708;2023-04-20T18:29:48;3.17;;;1.60;;
80213;SDS011;69531;37.974;23.708;2023-04-20T18:32:14;3.33;;;1.60;;
80213;SDS011;69531;37.974;23.708;2023-04-20T18:34:42;3.63;;;1.55;;
80213;SDS011;69531;37.974;23.708;2023-04-20T18:37:08;4.10;;;1.73;;
80213;SDS011;69531;37.974;23.708;2023-04-20T18:39:36;2.72;;;1.40;;
80213;SDS011;69531;37.974;23.708;2023-04-20T18:42:02;6.13;;;1.90;;
80213;SDS011;69531;37.974;23.708;2023-04-20T18:44:27;2.83;;;1.63;;
80213;SDS011;69531;37.974;23.708;2023-04-20T18:46:54;3.67;;;1.65;;
80213;SDS011;69531;37.974;23.708;2023-04-20T18:49:20;3.33;;;1.90;;
80213;SDS011;69531;37.974;23.708;2023-04-20T18:51:45;4.05;;;1.63;;
80213;SDS011;69531;37.974;23.708;2023-04-20T18:54:11;3.80;;;1.85;;
80213;SDS011;69531;37.974;23.708;2023-04-20T18:56:37;3.83;;;1.70;;
80213;SDS011;69531;37.974;23.708;2023-04-20T18:59:04;4.13;;;1.60;;
80213;SDS011;69531;37.974;23.708;2023-04-20T19:01:32;4.75;;;1.60;;
80213;SDS011;69531;37.974;23.708;2023-04-20T19:04:01;4.00;;;1.77;;
80213;SDS011;69531;37.974;23.708;2023-04-20T19:06:27;4.03;;;1.83;;
80213;SDS011;69531;37.974;23.708;2023-04-20T19:08:53;2.75;;;1.70;;
80213;SDS011;69531;37.974;23.708;2023-04-20T19:11:19;4.60;;;1.83;;
80213;SDS011;69531;37.974;23.708;2023-04-20T19:13:45;3.58;;;1.92;;
80213;SDS011;69531;37.974;23.708;2023-04-20T19:16:11;3.53;;;1.50;;
80213;SDS011;69531;37.974;23.708;2023-04-20T19:18:37;4.38;;;2.30;;
80213;SDS011;69531;37.974;23.708;2023-04-20T19:21:03;2.53;;;1.50;;
80213;SDS011;69531;37.974;23.708;2023-04-20T19:23:29;4.55;;;1.80;;
80213;SDS011;69531;37.974;23.708;2023-04-20T19:25:55;3.08;;;1.70;;
80213;SDS011;69531;37.974;23.708;2023-04-20T19:28:20;5.88;;;1.80;;
80213;SDS011;69531;37.974;23.708;2023-04-20T19:30:46;2.90;;;1.52;;
80213;SDS011;69531;37.974;23.708;2023-04-20T19:33:12;4.47;;;1.98;;